Time;durP1;ratioP1;P1;durP2;ratioP2;P2;SDS_P1;SDS_P2;PMS_P1;PMS_P2;Temp;Humidity;BMP_temperature;BMP_pressure;BME280_temperature;BME280_humidity;BME280_pressure;Samples;Min_cycle;Max_cycle;Signal;HPM_P1;HPM_P2
2023/06/17 00:02:20;;;;;;;8.43;5.63;;;13.60;87.70;;;;;;5033792;28;20033;-73
2023/06/17 00:04:46;;;;;;;11.98;6.15;;;13.80;87.20;;;;;;5034244;28;20025;-73
2023/06/17 00:07:13;;;;;;;12.15;6.55;;;13.90;86.40;;;;;;5030242;28;20037;-73
2023/06/17 00:09:41;;;;;;;10.57;6.22;;;14.10;86.00;;;;;;5030074;28;20018;-73
2023/06/17 00:12:07;;;;;;;11.60;6.10;;;14.10;85.40;;;;;;5013937;28;20449;-73
2023/06/17 00:14:33;;;;;;;10.05;5.80;;;14.20;85.30;;;;;;5025189;28;20040;-73
2023/06/17 00:17:00;;;;;;;10.18;6.38;;;14.20;85.30;;;;;;5030324;28;20025;-72
2023/06/17 00:19:27;;;;;;;10.77;6.40;;;14.20;85.00;;;;;;5018827;28;20083;-73
2023/06/17 00:21:54;;;;;;;10.65;5.90;;;14.20;85.00;;;;;;5031597;28;20781;-73
2023/06/17 00:24:20;;;;;;;10.15;5.78;;;14.20;85.10;;;;;;5017976;28;20041;-72
2023/06/17 00:26:46;;;;;;;9.35;6.05;;;14.20;84.90;;;;;;5033582;28;20111;-73
2023/06/17 00:29:12;;;;;;;9.38;6.53;;;14.20;84.90;;;;;;5027378;28;20056;-73
2023/06/17 00:31:38;;;;;;;9.90;5.95;;;14.20;85.10;;;;;;5026391;28;20025;-73
2023/06/17 00:34:04;;;;;;;8.32;6.10;;;14.10;85.40;;;;;;5035664;28;20037;-73
2023/06/17 00:36:29;;;;;;;10.32;6.32;;;14.10;85.50;;;;;;5035161;28;20033;-73
2023/06/17 00:38:55;;;;;;;9.73;5.88;;;14.10;85.30;;;;;;5032255;28;20033;-73
2023/06/17 00:41:21;;;;;;;9.55;5.88;;;14.10;85.10;;;;;;5035159;28;20045;-73
2023/06/17 00:43:46;;;;;;;8.90;5.88;;;14.10;85.50;;;;;;5033473;28;20065;-73
2023/06/17 00:46:27;;;;;;;7.55;5.32;;;14.00;85.70;;;;;;5032677;28;20108;-73
2023/06/17 00:48:53;;;;;;;9.05;5.35;;;14.00;85.70;;;;;;5031139;28;20048;-73
2023/06/17 00:51:18;;;;;;;8.07;5.68;;;13.90;85.80;;;;;;5035618;28;20018;-73
2023/06/17 00:53:47;;;;;;;10.77;6.05;;;13.80;86.60;;;;;;5029222;28;20037;-72
2023/06/17 00:56:13;;;;;;;11.40;6.10;;;13.70;87.30;;;;;;5033097;28;20437;-72
2023/06/17 00:58:39;;;;;;;9.48;6.20;;;13.50;87.80;;;;;;5033325;28;20025;-74
2023/06/17 01:01:05;;;;;;;9.63;6.50;;;13.30;88.70;;;;;;5032918;28;20737;-72
2023/06/17 01:03:30;;;;;;;8.15;5.80;;;13.10;89.50;;;;;;5032205;28;20112;-73
2023/06/17 01:05:59;;;;;;;8.68;6.22;;;12.90;90.00;;;;;;5033274;28;20361;-73
2023/06/17 01:08:33;;;;;;;8.35;6.10;;;12.70;90.60;;;;;;5030910;28;20030;-71
2023/06/17 01:11:10;;;;;;;9.63;6.40;;;12.60;91.10;;;;;;5033317;28;20036;-73
2023/06/17 01:13:37;;;;;;;11.07;6.07;;;12.50;91.60;;;;;;5031512;28;20049;-73
2023/06/17 01:16:04;;;;;;;9.27;6.25;;;12.40;91.50;;;;;;5034594;28;20071;-72
2023/06/17 01:18:31;;;;;;;10.30;5.78;;;12.30;91.80;;;;;;5030861;28;20030;-73
2023/06/17 01:20:57;;;;;;;10.68;6.28;;;12.30;92.00;;;;;;5032027;28;20030;-73
2023/06/17 01:23:34;;;;;;;10.18;6.78;;;12.30;92.20;;;;;;5010798;28;20018;-72
2023/06/17 01:26:01;;;;;;;12.52;6.35;;;12.20;92.40;;;;;;5029137;28;20032;-73
2023/06/17 01:28:29;;;;;;;9.93;6.50;;;12.20;92.50;;;;;;5032448;28;20072;-73
2023/06/17 01:30:56;;;;;;;9.93;5.90;;;12.10;92.90;;;;;;5035280;28;20033;-73
2023/06/17 01:33:23;;;;;;;9.27;5.90;;;12.00;93.30;;;;;;5030652;28;20525;-73
2023/06/17 01:36:11;;;;;;;9.50;6.10;;;11.90;93.60;;;;;;5033186;28;20029;-73
2023/06/17 01:38:44;;;;;;;8.25;6.03;;;11.90;93.80;;;;;;5030201;28;20025;-73
2023/06/17 01:41:16;;;;;;;12.27;6.38;;;11.80;94.10;;;;;;5015614;28;20422;-73
2023/06/17 01:43:44;;;;;;;14.38;6.63;;;11.70;94.10;;;;;;5031347;28;20037;-72
2023/06/17 01:46:14;;;;;;;9.40;6.30;;;11.70;94.30;;;;;;5032211;28;20300;-72
2023/06/17 01:48:41;;;;;;;10.40;5.70;;;11.70;94.40;;;;;;5026505;28;20029;-72
2023/06/17 01:51:07;;;;;;;9.15;5.40;;;12.10;93.30;;;;;;5033296;28;20030;-73
2023/06/17 01:53:32;;;;;;;7.65;5.47;;;12.40;92.30;;;;;;5002595;28;20304;-72
2023/06/17 01:55:58;;;;;;;10.02;6.03;;;12.70;91.50;;;;;;5012471;28;20406;-73
2023/06/17 01:58:23;;;;;;;8.68;5.57;;;13.00;90.50;;;;;;5031403;28;20079;-72
2023/06/17 02:00:49;;;;;;;10.48;5.57;;;13.20;89.80;;;;;;5031999;28;20033;-73
2023/06/17 02:03:18;;;;;;;8.63;5.47;;;13.30;89.60;;;;;;5032979;28;20038;-73
2023/06/17 02:05:44;;;;;;;8.60;5.55;;;13.30;89.40;;;;;;5034171;28;20373;-73
2023/06/17 02:08:11;;;;;;;9.90;5.20;;;13.30;89.40;;;;;;5030798;28;20365;-72
2023/06/17 02:10:37;;;;;;;7.78;5.68;;;13.30;89.60;;;;;;5032904;28;20029;-72
2023/06/17 02:13:03;;;;;;;10.07;5.55;;;13.20;89.80;;;;;;5029655;28;20029;-72
2023/06/17 02:15:32;;;;;;;8.50;5.75;;;13.20;90.10;;;;;;5032265;28;20520;-72
2023/06/17 02:17:58;;;;;;;9.27;5.95;;;13.00;90.60;;;;;;5035755;28;20032;-72
2023/06/17 02:20:26;;;;;;;9.27;5.43;;;13.00;90.50;;;;;;5036236;28;20029;-73
2023/06/17 02:22:52;;;;;;;8.13;5.85;;;13.10;90.40;;;;;;5031199;28;20022;-72
2023/06/17 02:25:18;;;;;;;10.30;5.68;;;13.10;90.40;;;;;;5034811;28;20026;-73
2023/06/17 02:27:43;;;;;;;9.13;5.63;;;13.10;90.50;;;;;;5032677;28;20422;-73
2023/06/17 02:30:10;;;;;;;10.80;5.28;;;13.00;91.00;;;;;;5037109;28;20026;-73
2023/06/17 02:32:36;;;;;;;8.93;5.85;;;12.90;91.20;;;;;;5038023;28;20017;-73
2023/06/17 02:35:02;;;;;;;7.45;5.30;;;12.80;91.40;;;;;;5039692;28;20030;-73
2023/06/17 02:37:28;;;;;;;9.05;5.40;;;12.80;91.70;;;;;;5034784;28;20072;-73
2023/06/17 02:39:54;;;;;;;9.13;5.63;;;12.80;91.70;;;;;;5038264;28;20053;-72
2023/06/17 02:42:20;;;;;;;9.98;6.25;;;12.80;91.60;;;;;;5035222;28;20049;-73
2023/06/17 02:44:45;;;;;;;10.27;5.88;;;12.90;91.40;;;;;;5037158;28;20514;-73
2023/06/17 02:47:11;;;;;;;8.23;5.30;;;13.10;91.20;;;;;;5012537;28;20034;-73
2023/06/17 02:49:36;;;;;;;9.55;5.15;;;13.10;91.10;;;;;;5038316;28;20359;-73
2023/06/17 02:52:02;;;;;;;8.23;5.15;;;13.00;91.10;;;;;;5037155;28;20100;-72
2023/06/17 02:54:28;;;;;;;7.28;4.97;;;13.00;91.20;;;;;;5038421;28;20045;-73
2023/06/17 02:56:53;;;;;;;8.60;5.18;;;13.00;91.20;;;;;;5035795;28;20046;-72
2023/06/17 02:59:19;;;;;;;8.02;5.13;;;13.00;91.20;;;;;;5035435;28;20033;-74
2023/06/17 03:01:44;;;;;;;9.52;5.35;;;13.00;91.20;;;;;;5033746;28;20029;-72
2023/06/17 03:04:10;;;;;;;9.07;5.45;;;13.00;91.00;;;;;;5030918;28;20034;-72
2023/06/17 03:06:37;;;;;;;9.10;5.30;;;13.00;90.80;;;;;;5014896;28;20037;-73
2023/06/17 03:09:03;;;;;;;9.88;5.18;;;13.00;91.10;;;;;;5034073;28;20021;-72
2023/06/17 03:11:29;;;;;;;7.25;4.80;;;13.00;91.00;;;;;;5036640;28;20033;-73
2023/06/17 03:13:55;;;;;;;9.73;5.57;;;13.00;90.80;;;;;;5018867;28;20326;-72
2023/06/17 03:16:23;;;;;;;9.15;5.70;;;12.90;91.30;;;;;;5035074;28;20021;-74
2023/06/17 03:18:51;;;;;;;9.25;5.70;;;12.80;91.50;;;;;;5018520;28;20211;-73
2023/06/17 03:21:16;;;;;;;9.98;5.43;;;12.70;91.80;;;;;;5033196;28;20025;-72
2023/06/17 03:23:42;;;;;;;8.48;5.00;;;12.50;92.50;;;;;;5035122;28;20025;-73
2023/06/17 03:26:11;;;;;;;10.85;5.75;;;12.30;93.10;;;;;;5036060;28;20104;-73
2023/06/17 03:28:36;;;;;;;8.48;5.60;;;12.30;93.20;;;;;;5033007;28;20033;-72
2023/06/17 03:31:02;;;;;;;9.90;5.22;;;12.30;93.10;;;;;;5036486;28;20314;-72
2023/06/17 03:33:28;;;;;;;11.98;5.68;;;12.50;92.60;;;;;;5032929;28;20426;-72
2023/06/17 03:35:54;;;;;;;8.75;5.03;;;12.90;91.70;;;;;;5036790;28;20017;-73
2023/06/17 03:38:19;;;;;;;8.57;5.28;;;13.10;91.00;;;;;;5032222;28;20060;-72
2023/06/17 03:40:45;;;;;;;7.72;5.20;;;13.10;90.60;;;;;;5029010;28;20316;-73
2023/06/17 03:43:13;;;;;;;7.75;5.28;;;13.20;90.60;;;;;;5036653;28;20047;-72
2023/06/17 03:45:39;;;;;;;7.10;5.13;;;13.20;90.50;;;;;;5037139;28;20025;-74
2023/06/17 03:48:05;;;;;;;8.07;5.13;;;13.30;90.40;;;;;;5032868;28;20076;-73
2023/06/17 03:50:31;;;;;;;8.25;5.20;;;13.20;90.80;;;;;;5034037;28;20056;-73
2023/06/17 03:52:57;;;;;;;8.32;4.95;;;13.10;91.00;;;;;;5034835;28;20053;-73
2023/06/17 03:55:23;;;;;;;7.75;5.10;;;13.10;90.50;;;;;;5035173;28;20485;-72
2023/06/17 03:57:49;;;;;;;8.25;5.50;;;13.20;90.80;;;;;;5032389;28;20108;-73
2023/06/17 04:00:15;;;;;;;11.90;5.82;;;13.20;90.70;;;;;;5030799;28;20025;-73
2023/06/17 04:02:45;;;;;;;8.00;5.15;;;13.30;90.30;;;;;;5035455;28;20026;-73
2023/06/17 04:05:14;;;;;;;8.43;4.82;;;13.40;89.80;;;;;;5033433;28;20044;-73
2023/06/17 04:07:40;;;;;;;9.70;5.65;;;13.60;89.40;;;;;;5031808;28;20041;-73
2023/06/17 04:10:08;;;;;;;7.22;4.75;;;13.80;89.10;;;;;;5035000;28;20434;-73
2023/06/17 04:12:37;;;;;;;7.80;4.97;;;13.80;88.90;;;;;;5036457;28;20025;-73
2023/06/17 04:15:04;;;;;;;8.90;5.20;;;14.00;88.70;;;;;;5036238;28;20028;-72
2023/06/17 04:17:30;;;;;;;9.32;5.47;;;14.10;88.50;;;;;;5032254;28;20028;-73
2023/06/17 04:19:58;;;;;;;7.60;5.10;;;14.20;88.40;;;;;;5032998;28;20037;-72
2023/06/17 04:22:24;;;;;;;8.57;4.88;;;14.30;88.10;;;;;;5029289;28;20025;-73
2023/06/17 04:24:55;;;;;;;9.23;4.80;;;14.50;87.60;;;;;;5027351;28;20029;-73
2023/06/17 04:27:21;;;;;;;9.02;5.22;;;14.60;87.50;;;;;;5033876;28;20029;-73
2023/06/17 04:29:47;;;;;;;10.05;5.78;;;14.70;87.60;;;;;;5018598;28;20033;-73
2023/06/17 04:32:15;;;;;;;11.80;5.60;;;14.80;87.80;;;;;;5008330;28;20028;-73
2023/06/17 04:34:47;;;;;;;9.73;5.35;;;14.80;87.30;;;;;;5036398;28;20036;-73
2023/06/17 04:37:16;;;;;;;8.45;5.30;;;14.90;87.30;;;;;;5016790;28;20025;-73
2023/06/17 04:39:42;;;;;;;9.43;5.00;;;15.10;87.20;;;;;;5036586;28;20410;-73
2023/06/17 04:42:09;;;;;;;9.10;5.55;;;15.20;87.20;;;;;;5033162;28;20099;-72
2023/06/17 04:44:37;;;;;;;10.45;5.07;;;15.30;87.00;;;;;;5037163;28;20032;-73
2023/06/17 04:47:04;;;;;;;8.05;5.57;;;15.50;86.80;;;;;;5033201;28;20514;-72
2023/06/17 04:49:31;;;;;;;8.93;5.40;;;15.60;86.40;;;;;;5037057;28;20040;-73
2023/06/17 04:51:56;;;;;;;10.80;5.55;;;15.70;86.80;;;;;;5032078;28;20045;-72
2023/06/17 04:54:24;;;;;;;9.35;5.55;;;15.70;87.00;;;;;;5034146;28;20053;-73
2023/06/17 04:56:53;;;;;;;9.73;5.18;;;15.80;86.50;;;;;;5034663;28;20037;-72
2023/06/17 04:59:19;;;;;;;10.52;4.97;;;15.80;86.60;;;;;;5035543;28;20029;-72
2023/06/17 05:01:45;;;;;;;7.40;5.00;;;15.90;86.80;;;;;;5035075;28;20441;-72
2023/06/17 05:04:10;;;;;;;11.15;5.20;;;15.90;87.40;;;;;;5033690;28;20158;-71
2023/06/17 05:06:36;;;;;;;13.40;5.72;;;15.90;87.90;;;;;;5033474;28;20068;-72
2023/06/17 05:09:02;;;;;;;12.50;5.25;;;15.80;87.90;;;;;;5034021;28;20430;-71
2023/06/17 05:11:27;;;;;;;12.77;5.72;;;15.70;88.80;;;;;;5033706;28;20123;-72
2023/06/17 05:13:53;;;;;;;11.07;5.38;;;15.70;89.30;;;;;;5034784;28;20033;-74
2023/06/17 05:16:19;;;;;;;11.15;5.57;;;15.70;89.40;;;;;;5032924;28;20441;-72
2023/06/17 05:18:44;;;;;;;13.90;5.95;;;15.60;89.70;;;;;;5033668;28;20025;-72
2023/06/17 05:21:10;;;;;;;11.88;5.35;;;15.60;90.10;;;;;;5033332;28;20094;-72
2023/06/17 05:23:35;;;;;;;10.50;5.78;;;15.60;90.20;;;;;;5016970;28;20033;-72
2023/06/17 05:26:01;;;;;;;13.35;6.03;;;15.60;89.80;;;;;;5033564;28;20021;-73
2023/06/17 05:28:27;;;;;;;11.23;5.68;;;15.70;89.90;;;;;;5033908;28;20049;-72
2023/06/17 05:30:52;;;;;;;9.75;6.00;;;15.80;89.40;;;;;;5034699;28;20314;-73
2023/06/17 05:33:18;;;;;;;9.45;5.65;;;15.90;89.20;;;;;;5035536;28;20387;-72
2023/06/17 05:35:44;;;;;;;10.02;5.70;;;16.10;89.60;;;;;;5033396;28;20124;-72
2023/06/17 05:38:09;;;;;;;9.15;6.03;;;16.20;89.00;;;;;;5033472;28;20041;-73
2023/06/17 05:40:35;;;;;;;10.02;5.60;;;16.40;88.80;;;;;;5034778;28;20051;-73
2023/06/17 05:43:00;;;;;;;9.55;5.50;;;16.60;88.30;;;;;;5027735;28;20053;-73
2023/06/17 05:45:26;;;;;;;8.80;5.20;;;16.70;87.40;;;;;;5025966;28;20104;-73
2023/06/17 05:47:52;;;;;;;14.00;7.40;;;16.90;86.70;;;;;;5026540;28;20033;-73
2023/06/17 05:50:17;;;;;;;10.82;6.53;;;17.10;86.20;;;;;;5009115;28;20061;-73
2023/06/17 05:52:45;;;;;;;11.73;6.20;;;17.10;86.20;;;;;;5022711;28;20619;-73
2023/06/17 05:55:11;;;;;;;11.20;5.60;;;17.20;86.20;;;;;;5025894;28;20104;-73
2023/06/17 05:57:36;;;;;;;8.80;5.68;;;17.30;85.90;;;;;;5026381;28;20109;-73
2023/06/17 06:00:03;;;;;;;9.50;6.10;;;17.50;85.50;;;;;;5028842;28;20426;-73
2023/06/17 06:02:28;;;;;;;10.02;5.95;;;17.70;84.40;;;;;;5029971;28;20033;-73
2023/06/17 06:04:54;;;;;;;10.15;6.05;;;17.90;84.60;;;;;;5033036;28;20025;-73
2023/06/17 06:07:20;;;;;;;8.85;5.25;;;18.10;83.80;;;;;;5032934;28;20030;-73
2023/06/17 06:09:45;;;;;;;9.45;5.75;;;18.30;83.10;;;;;;5014875;28;20322;-73
2023/06/17 06:12:12;;;;;;;10.98;6.28;;;18.40;83.30;;;;;;5033066;28;20071;-73
2023/06/17 06:14:37;;;;;;;12.98;5.80;;;18.50;82.30;;;;;;5032407;28;20022;-73
2023/06/17 06:17:03;;;;;;;12.77;5.63;;;18.50;81.70;;;;;;5035986;28;20113;-72
2023/06/17 06:19:29;;;;;;;10.55;5.70;;;18.80;81.60;;;;;;5026200;28;20068;-72
2023/06/17 06:21:54;;;;;;;10.50;5.93;;;19.00;80.60;;;;;;5022772;28;20386;-72
2023/06/17 06:24:20;;;;;;;8.25;5.57;;;19.20;79.80;;;;;;5025076;28;20099;-73
2023/06/17 06:26:45;;;;;;;8.77;5.57;;;19.40;79.40;;;;;;5034383;28;20132;-72
2023/06/17 06:29:13;;;;;;;9.38;6.32;;;19.50;79.60;;;;;;5031249;28;20374;-73
2023/06/17 06:31:42;;;;;;;12.98;6.68;;;19.50;79.80;;;;;;5021342;28;20403;-68
2023/06/17 06:34:08;;;;;;;10.30;6.03;;;19.60;77.20;;;;;;5037120;28;20075;-72
2023/06/17 06:36:33;;;;;;;11.45;6.40;;;19.70;74.00;;;;;;5035196;28;20057;-73
2023/06/17 06:38:59;;;;;;;12.95;6.38;;;19.40;77.60;;;;;;5032017;28;20022;-72
2023/06/17 06:41:25;;;;;;;9.50;5.57;;;18.70;73.20;;;;;;5034649;28;20049;-72
2023/06/17 06:43:50;;;;;;;8.93;5.90;;;18.20;77.60;;;;;;5018907;28;20022;-73
2023/06/17 06:46:16;;;;;;;7.97;5.53;;;18.00;77.00;;;;;;5026984;28;20026;-72
2023/06/17 06:48:41;;;;;;;12.70;5.65;;;18.00;74.90;;;;;;5036480;28;20418;-73
2023/06/17 06:51:07;;;;;;;9.27;5.70;;;18.10;75.20;;;;;;5033081;28;20323;-73
2023/06/17 06:53:33;;;;;;;8.95;5.93;;;18.40;76.40;;;;;;5034251;28;20414;-73
2023/06/17 06:55:58;;;;;;;9.27;5.35;;;18.70;75.00;;;;;;5034309;28;20082;-73
2023/06/17 06:58:24;;;;;;;9.45;5.60;;;19.10;72.70;;;;;;5030638;28;20044;-73
2023/06/17 07:00:49;;;;;;;7.63;5.00;;;19.40;73.10;;;;;;5029153;28;20030;-73
2023/06/17 07:03:15;;;;;;;9.02;4.90;;;19.70;70.20;;;;;;5037815;28;20025;-73
2023/06/17 07:05:40;;;;;;;8.95;5.18;;;20.10;69.80;;;;;;5039153;28;20033;-73
2023/06/17 07:08:06;;;;;;;8.13;5.68;;;20.40;70.00;;;;;;5020194;28;20037;-73
2023/06/17 07:10:33;;;;;;;11.15;6.32;;;20.70;69.10;;;;;;5036250;28;20025;-73
2023/06/17 07:12:58;;;;;;;10.75;6.03;;;20.90;68.60;;;;;;5032577;28;20087;-73
2023/06/17 07:15:24;;;;;;;9.25;5.60;;;21.00;65.70;;;;;;5031567;28;20033;-73
2023/06/17 07:17:50;;;;;;;11.60;6.13;;;21.20;65.60;;;;;;5034654;28;20025;-73
2023/06/17 07:20:15;;;;;;;7.22;5.30;;;21.30;65.50;;;;;;5036199;28;20091;-73
2023/06/17 07:22:42;;;;;;;11.45;5.90;;;21.50;65.70;;;;;;5031501;28;20088;-73
2023/06/17 07:25:08;;;;;;;10.50;5.32;;;22.20;64.10;;;;;;5031699;28;20021;-73
2023/06/17 07:27:34;;;;;;;11.30;5.13;;;23.10;63.00;;;;;;5033664;28;20029;-73
2023/06/17 07:29:59;;;;;;;12.73;5.43;;;24.20;60.20;;;;;;5034355;28;20287;-73
2023/06/17 07:32:25;;;;;;;10.90;5.68;;;25.10;57.90;;;;;;5031604;28;20043;-73
2023/06/17 07:34:51;;;;;;;8.52;5.60;;;25.50;57.60;;;;;;5036170;28;20029;-73
2023/06/17 07:37:16;;;;;;;9.32;5.10;;;25.50;56.90;;;;;;5029197;28;20037;-73
2023/06/17 07:39:45;;;;;;;10.57;5.32;;;25.80;55.30;;;;;;5019168;28;20021;-73
2023/06/17 07:42:11;;;;;;;8.02;4.97;;;26.40;55.90;;;;;;5040276;28;20061;-74
2023/06/17 07:44:39;;;;;;;14.00;6.07;;;26.50;55.10;;;;;;5039251;28;20026;-73
2023/06/17 07:47:05;;;;;;;7.47;5.50;;;26.50;55.60;;;;;;5033830;28;20392;-73
2023/06/17 07:49:31;;;;;;;9.88;5.97;;;26.70;54.20;;;;;;5038087;28;20104;-73
2023/06/17 07:51:57;;;;;;;10.57;5.85;;;26.80;54.70;;;;;;5036739;28;20037;-73
2023/06/17 07:54:22;;;;;;;8.43;5.07;;;26.60;53.10;;;;;;5037173;28;20436;-74
2023/06/17 07:56:51;;;;;;;9.55;5.30;;;26.40;54.40;;;;;;5038089;28;20026;-73
2023/06/17 07:59:17;;;;;;;8.95;5.13;;;26.70;54.10;;;;;;5035587;28;20029;-73
2023/06/17 08:01:43;;;;;;;7.93;5.50;;;26.80;53.50;;;;;;5033753;28;20025;-73
2023/06/17 08:04:09;;;;;;;10.20;5.88;;;26.60;54.80;;;;;;5037004;28;20029;-73
2023/06/17 08:06:35;;;;;;;10.75;5.30;;;26.50;55.30;;;;;;5036179;28;20056;-74
2023/06/17 08:09:01;;;;;;;10.85;5.70;;;26.60;54.10;;;;;;5032293;28;20025;-74
2023/06/17 08:11:27;;;;;;;11.48;5.55;;;26.10;54.00;;;;;;5032900;28;20033;-74
2023/06/17 08:13:52;;;;;;;8.52;5.15;;;26.50;54.70;;;;;;5032406;28;20026;-73
2023/06/17 08:16:18;;;;;;;8.40;5.35;;;26.80;53.80;;;;;;5034210;28;20075;-73
2023/06/17 08:18:44;;;;;;;8.18;5.25;;;26.80;54.20;;;;;;5017657;28;20025;-73
2023/06/17 08:21:09;;;;;;;22.13;5.32;;;26.80;54.80;;;;;;5034669;28;20037;-73
2023/06/17 08:23:35;;;;;;;6.57;4.85;;;27.10;53.60;;;;;;5018875;28;20025;-73
2023/06/17 08:26:00;;;;;;;9.02;5.22;;;27.30;52.60;;;;;;5031718;28;20410;-73
2023/06/17 08:28:26;;;;;;;7.57;5.05;;;27.70;52.90;;;;;;5022070;28;20034;-73
2023/06/17 08:30:52;;;;;;;10.32;5.13;;;28.00;53.00;;;;;;5023166;28;20029;-73
2023/06/17 08:33:17;;;;;;;10.50;5.30;;;28.70;51.70;;;;;;5022760;28;20017;-73
2023/06/17 08:35:43;;;;;;;11.45;5.57;;;29.00;51.10;;;;;;5015082;28;20430;-73
2023/06/17 08:38:09;;;;;;;9.10;5.00;;;28.40;51.70;;;;;;5035559;28;20033;-73
2023/06/17 08:40:36;;;;;;;12.07;5.30;;;28.40;51.20;;;;;;5033818;28;20090;-72
2023/06/17 08:43:03;;;;;;;7.55;5.00;;;28.30;51.00;;;;;;5030317;28;20038;-72
2023/06/17 08:45:32;;;;;;;12.43;5.20;;;27.90;49.50;;;;;;5034175;28;20212;-72
2023/06/17 08:47:58;;;;;;;10.35;5.20;;;28.10;50.50;;;;;;5037259;28;20131;-73
2023/06/17 08:50:27;;;;;;;9.25;4.90;;;28.10;51.00;;;;;;5025484;28;20045;-72
2023/06/17 08:52:54;;;;;;;8.10;4.68;;;28.70;49.00;;;;;;5031064;28;20052;-72
2023/06/17 08:55:19;;;;;;;7.05;4.43;;;28.60;49.20;;;;;;5019662;28;20506;-73
2023/06/17 08:57:49;;;;;;;9.65;4.88;;;28.60;47.70;;;;;;5036929;28;20108;-73
2023/06/17 09:00:15;;;;;;;9.45;4.80;;;28.80;50.10;;;;;;5028901;28;20033;-73
2023/06/17 09:02:44;;;;;;;9.75;4.80;;;29.30;48.30;;;;;;5032212;28;20061;-72
2023/06/17 09:05:10;;;;;;;6.93;4.32;;;29.40;47.80;;;;;;5017326;28;20058;-72
2023/06/17 09:07:37;;;;;;;8.00;4.78;;;29.50;45.60;;;;;;5015809;28;20379;-73
2023/06/17 09:10:08;;;;;;;7.82;4.75;;;29.10;46.20;;;;;;5033586;28;20032;-72
2023/06/17 09:12:40;;;;;;;6.53;3.92;;;29.00;45.60;;;;;;5036804;28;20025;-73
2023/06/17 09:15:07;;;;;;;7.85;4.32;;;28.70;46.10;;;;;;5035258;28;20038;-74
2023/06/17 09:17:36;;;;;;;8.80;4.47;;;28.70;46.20;;;;;;5013915;28;20038;-73
2023/06/17 09:20:22;;;;;;;9.70;5.32;;;28.90;47.20;;;;;;5036502;28;20037;-73
2023/06/17 09:22:48;;;;;;;9.90;4.45;;;28.70;45.70;;;;;;5019385;28;20041;-73
2023/06/17 09:25:15;;;;;;;5.82;4.30;;;27.80;47.50;;;;;;5017634;28;20029;-73
2023/06/17 09:27:46;;;;;;;8.30;4.40;;;27.80;46.40;;;;;;5036402;28;20025;-73
2023/06/17 09:30:14;;;;;;;6.43;4.15;;;28.30;46.60;;;;;;5035954;28;20026;-73
2023/06/17 09:32:41;;;;;;;6.97;4.10;;;29.30;47.30;;;;;;5030576;28;20036;-74
2023/06/17 09:35:17;;;;;;;10.18;4.50;;;30.40;44.30;;;;;;5028855;28;20018;-73
2023/06/17 09:37:48;;;;;;;8.20;4.70;;;30.60;42.60;;;;;;5021955;28;20113;-73
2023/06/17 09:40:14;;;;;;;8.93;4.30;;;30.50;42.80;;;;;;5018621;28;20033;-73
2023/06/17 09:42:44;;;;;;;7.70;4.43;;;30.50;43.30;;;;;;5036090;28;20099;-73
2023/06/17 09:45:12;;;;;;;6.53;4.32;;;29.60;44.00;;;;;;5036105;28;20090;-73
2023/06/17 09:47:38;;;;;;;7.88;4.43;;;28.50;45.40;;;;;;5035407;28;20321;-73
2023/06/17 09:50:08;;;;;;;8.68;4.80;;;27.80;46.20;;;;;;5034808;28;20151;-73
2023/06/17 09:52:36;;;;;;;8.13;4.30;;;27.50;47.30;;;;;;5034172;28;20101;-73
2023/06/17 09:55:05;;;;;;;8.27;4.28;;;28.50;47.50;;;;;;5035965;28;20024;-73
2023/06/17 09:57:35;;;;;;;9.65;4.35;;;30.20;44.60;;;;;;5035995;28;20032;-73
2023/06/17 10:00:09;;;;;;;6.88;4.28;;;31.20;43.90;;;;;;5020758;28;20438;-73
2023/06/17 10:02:36;;;;;;;8.40;4.35;;;31.30;42.30;;;;;;5034007;28;20037;-73
2023/06/17 10:05:01;;;;;;;8.80;4.25;;;31.20;42.90;;;;;;5035351;28;20025;-73
2023/06/17 10:07:27;;;;;;;6.75;4.55;;;31.60;42.20;;;;;;5033232;28;20040;-73
2023/06/17 10:09:53;;;;;;;9.30;4.70;;;31.50;42.10;;;;;;5021547;28;20022;-73
2023/06/17 10:12:21;;;;;;;8.80;4.68;;;31.10;43.10;;;;;;5028664;28;20413;-74
2023/06/17 10:14:48;;;;;;;8.45;4.63;;;29.30;44.90;;;;;;5018299;28;20022;-74
2023/06/17 10:17:15;;;;;;;6.85;4.35;;;28.60;46.70;;;;;;5032229;28;20037;-74
2023/06/17 10:19:43;;;;;;;8.38;4.63;;;28.90;45.40;;;;;;5018600;28;20029;-74
2023/06/17 10:22:13;;;;;;;9.10;4.95;;;29.70;44.20;;;;;;5032723;28;20021;-73
2023/06/17 10:24:39;;;;;;;8.60;5.53;;;30.40;43.80;;;;;;5035614;28;20026;-73
2023/06/17 10:27:08;;;;;;;5.88;4.10;;;30.40;43.30;;;;;;5017852;28;20034;-73
2023/06/17 10:29:33;;;;;;;6.35;4.60;;;30.60;42.20;;;;;;5015770;28;20105;-73
2023/06/17 10:32:25;;;;;;;10.50;5.00;;;31.30;42.80;;;;;;5029485;28;20108;-73
2023/06/17 10:35:06;;;;;;;9.52;7.15;;;31.80;42.70;;;;;;5017734;28;20430;-74
2023/06/17 10:37:45;;;;;;;8.30;4.70;;;32.10;41.60;;;;;;5033782;28;20032;-73
2023/06/17 10:40:30;;;;;;;7.07;4.40;;;32.80;41.80;;;;;;5038480;28;20022;-73
2023/06/17 10:43:01;;;;;;;7.32;4.60;;;31.50;42.30;;;;;;5022459;28;20045;-73
2023/06/17 10:45:55;;;;;;;8.85;5.13;;;29.10;44.50;;;;;;5039118;28;20036;-73
2023/06/17 10:48:33;;;;;;;9.27;4.80;;;26.60;47.00;;;;;;5023257;28;20073;-73
2023/06/17 10:51:02;;;;;;;9.50;5.10;;;25.50;49.00;;;;;;5039232;28;20087;-72
2023/06/17 10:53:35;;;;;;;8.40;5.00;;;25.10;50.40;;;;;;5007934;28;20053;-73
2023/06/17 10:56:03;;;;;;;6.88;5.20;;;25.00;50.60;;;;;;5041050;28;20314;-73
2023/06/17 10:58:33;;;;;;;9.18;4.70;;;25.10;51.00;;;;;;5038583;28;20043;-73
2023/06/17 11:01:07;;;;;;;8.20;5.13;;;26.10;50.70;;;;;;5021366;28;20025;-73
2023/06/17 11:03:34;;;;;;;9.13;4.50;;;27.40;47.70;;;;;;5038980;28;20342;-74
2023/06/17 11:06:04;;;;;;;7.93;4.70;;;28.40;46.70;;;;;;5038042;28;20030;-74
2023/06/17 11:08:34;;;;;;;9.73;5.63;;;29.00;46.60;;;;;;5030274;28;20113;-71
2023/06/17 11:11:10;;;;;;;8.55;5.28;;;29.80;46.80;;;;;;5031408;28;20335;-73
2023/06/17 11:13:41;;;;;;;7.93;5.40;;;28.90;45.50;;;;;;5037862;28;20413;-73
2023/06/17 11:16:07;;;;;;;9.48;5.22;;;28.40;46.10;;;;;;5036390;28;20108;-72
2023/06/17 11:18:38;;;;;;;8.43;5.00;;;27.80;46.70;;;;;;5035301;28;20021;-72
2023/06/17 11:21:05;;;;;;;8.43;5.05;;;28.00;46.30;;;;;;5032159;28;20037;-72
2023/06/17 11:23:31;;;;;;;8.30;5.00;;;28.70;47.00;;;;;;5034118;28;20032;-74
2023/06/17 11:25:58;;;;;;;7.50;4.68;;;29.20;44.90;;;;;;5038200;28;20033;-72
2023/06/17 11:28:23;;;;;;;7.22;4.93;;;28.90;45.50;;;;;;5030398;28;20489;-72
2023/06/17 11:30:49;;;;;;;9.35;5.10;;;28.70;46.40;;;;;;5031529;28;20041;-73
2023/06/17 11:33:19;;;;;;;8.77;5.30;;;29.20;44.90;;;;;;5030925;28;20422;-73
2023/06/17 11:35:45;;;;;;;8.63;4.90;;;29.30;45.70;;;;;;5023476;28;20037;-73
2023/06/17 11:38:11;;;;;;;8.48;4.93;;;29.10;46.00;;;;;;5035627;28;20472;-72
2023/06/17 11:40:40;;;;;;;8.13;5.05;;;29.30;45.70;;;;;;5022109;28;20034;-74
2023/06/17 11:43:06;;;;;;;6.90;5.05;;;29.40;45.40;;;;;;5027606;28;20045;-72
2023/06/17 11:45:33;;;;;;;10.05;4.93;;;29.70;44.40;;;;;;5037573;28;20135;-72
2023/06/17 11:47:58;;;;;;;7.88;5.00;;;30.30;44.50;;;;;;5037933;28;20029;-72
2023/06/17 11:50:29;;;;;;;8.27;4.90;;;30.50;44.50;;;;;;5037305;28;20096;-73
2023/06/17 11:52:58;;;;;;;9.07;4.97;;;30.20;43.70;;;;;;5035512;28;20482;-73
2023/06/17 11:55:35;;;;;;;15.00;5.90;;;30.00;44.60;;;;;;5037573;28;20079;-73
2023/06/17 11:58:02;;;;;;;10.65;4.75;;;30.70;43.60;;;;;;5038294;28;20021;-72
2023/06/17 12:00:35;;;;;;;9.60;5.25;;;30.30;43.90;;;;;;5038065;28;20419;-72
2023/06/17 12:03:02;;;;;;;11.35;5.10;;;29.90;43.20;;;;;;5038075;28;20067;-73
2023/06/17 12:05:28;;;;;;;8.50;4.95;;;29.80;44.40;;;;;;5037242;28;20025;-73
2023/06/17 12:07:59;;;;;;;8.05;4.53;;;29.70;44.00;;;;;;5016944;28;20044;-73
2023/06/17 12:10:26;;;;;;;8.15;4.95;;;30.60;44.00;;;;;;5018329;28;20105;-73
2023/06/17 12:12:56;;;;;;;7.95;4.88;;;30.00;43.40;;;;;;5018191;28;20056;-73
2023/06/17 12:15:29;;;;;;;7.13;4.90;;;29.50;44.60;;;;;;5018045;28;20033;-73
2023/06/17 12:17:55;;;;;;;8.40;4.88;;;29.70;45.70;;;;;;5000671;28;20124;-73
2023/06/17 12:20:21;;;;;;;8.43;5.15;;;30.20;44.20;;;;;;5018605;28;20050;-73
2023/06/17 12:22:48;;;;;;;6.25;4.55;;;31.10;44.90;;;;;;5036535;28;20028;-73
2023/06/17 12:25:14;;;;;;;6.47;4.47;;;31.20;42.30;;;;;;5034240;28;20026;-73
2023/06/17 12:27:41;;;;;;;8.55;5.65;;;31.60;42.60;;;;;;5026003;28;20030;-73
2023/06/17 12:30:08;;;;;;;8.40;5.22;;;31.60;42.90;;;;;;5034582;28;20036;-73
2023/06/17 12:32:34;;;;;;;7.55;4.68;;;31.30;42.80;;;;;;5039892;28;20018;-73
2023/06/17 12:35:00;;;;;;;6.82;4.70;;;31.10;43.20;;;;;;5041112;28;20043;-73
2023/06/17 12:37:27;;;;;;;9.45;5.18;;;31.70;42.70;;;;;;5034102;28;20108;-73
2023/06/17 12:39:55;;;;;;;7.22;4.53;;;32.20;43.20;;;;;;5021143;28;20151;-73
2023/06/17 12:42:21;;;;;;;6.90;4.85;;;32.70;40.00;;;;;;5041167;28;20048;-73
2023/06/17 12:44:48;;;;;;;8.45;4.25;;;31.80;39.70;;;;;;5049096;28;20319;-73